Time;durP1;ratioP1;P1;durP2;ratioP2;P2;SDS_P1;SDS_P2;PMS_P1;PMS_P2;Temp;Humidity;BMP_temperature;BMP_pressure;BME280_temperature;BME280_humidity;BME280_pressure;Samples;Min_cycle;Max_cycle;Signal;HPM_P1;HPM_P2
2024/01/27 00:01:45;;;;;;;3.15;2.10;;;6.20;85.50;;;;;;5043312;28;20218;-65
2024/01/27 00:04:10;;;;;;;2.30;1.67;;;6.20;86.30;;;;;;5039346;28;20040;-65
2024/01/27 00:06:36;;;;;;;3.92;1.60;;;6.20;85.40;;;;;;5039827;28;20037;-65
2024/01/27 00:09:02;;;;;;;3.28;1.80;;;6.10;85.40;;;;;;5045711;28;20564;-65
2024/01/27 00:11:27;;;;;;;3.78;1.95;;;6.10;85.40;;;;;;5042832;28;20404;-65
2024/01/27 00:13:53;;;;;;;5.13;1.95;;;6.10;85.30;;;;;;5041720;28;20032;-65
2024/01/27 00:16:19;;;;;;;2.40;1.60;;;6.10;85.20;;;;;;5045464;28;20045;-65
2024/01/27 00:18:45;;;;;;;3.10;1.90;;;6.10;85.00;;;;;;5047840;28;20044;-65
2024/01/27 00:21:11;;;;;;;2.28;1.73;;;6.10;84.80;;;;;;5039614;28;20040;-65
2024/01/27 00:23:36;;;;;;;3.65;1.73;;;6.10;84.40;;;;;;5043875;28;20036;-65
2024/01/27 00:26:02;;;;;;;3.78;2.55;;;6.00;84.20;;;;;;5043381;28;20056;-65
2024/01/27 00:28:28;;;;;;;2.65;2.30;;;6.00;84.00;;;;;;5043142;28;20106;-65
2024/01/27 00:30:53;;;;;;;3.40;2.40;;;5.90;84.10;;;;;;5041681;28;20033;-65
2024/01/27 00:33:19;;;;;;;4.70;2.60;;;5.80;83.90;;;;;;5043332;28;20290;-65
2024/01/27 00:35:45;;;;;;;4.68;2.20;;;5.70;84.00;;;;;;5042289;28;20033;-65
2024/01/27 00:38:10;;;;;;;4.10;2.70;;;5.70;84.20;;;;;;5039521;28;20485;-65
2024/01/27 00:40:36;;;;;;;3.67;2.50;;;5.60;84.20;;;;;;5039666;28;20033;-64
2024/01/27 00:43:04;;;;;;;3.60;2.45;;;5.50;84.20;;;;;;5043558;28;20025;-65
2024/01/27 00:45:30;;;;;;;4.85;2.95;;;5.50;84.40;;;;;;5043271;28;20677;-65
2024/01/27 00:47:59;;;;;;;4.65;2.58;;;5.40;84.40;;;;;;5041288;28;20029;-65
2024/01/27 00:50:25;;;;;;;3.97;3.08;;;5.40;84.60;;;;;;5039418;28;20040;-65
2024/01/27 00:52:51;;;;;;;8.63;3.22;;;5.30;84.60;;;;;;5036777;28;20041;-65
2024/01/27 00:55:17;;;;;;;5.70;3.28;;;5.30;84.50;;;;;;5041206;28;20040;-65
2024/01/27 00:57:43;;;;;;;6.97;2.65;;;5.20;84.50;;;;;;5042720;28;20057;-65
2024/01/27 01:00:10;;;;;;;6.82;2.58;;;5.30;84.60;;;;;;5044315;28;20170;-65
2024/01/27 01:02:37;;;;;;;6.63;2.80;;;5.10;84.60;;;;;;5046902;28;20082;-65
2024/01/27 01:05:03;;;;;;;5.55;2.55;;;5.00;84.70;;;;;;5048720;28;20040;-65
2024/01/27 01:07:32;;;;;;;4.82;2.13;;;5.00;84.70;;;;;;5047633;28;20683;-65
2024/01/27 01:09:58;;;;;;;8.13;2.10;;;4.90;84.80;;;;;;5039917;28;20443;-65
2024/01/27 01:12:25;;;;;;;4.20;1.88;;;4.90;85.10;;;;;;5047201;28;20119;-65
2024/01/27 01:14:51;;;;;;;4.63;1.90;;;4.80;85.30;;;;;;5049394;28;20051;-65
2024/01/27 01:17:17;;;;;;;2.75;1.88;;;4.80;85.40;;;;;;5042890;28;20038;-64
2024/01/27 01:19:42;;;;;;;4.32;1.90;;;4.70;85.30;;;;;;5048559;28;20021;-64
2024/01/27 01:22:08;;;;;;;2.70;1.80;;;4.70;85.30;;;;;;5043153;28;20025;-65
2024/01/27 01:24:34;;;;;;;6.53;1.88;;;4.60;85.20;;;;;;5049120;28;20112;-64
2024/01/27 01:27:00;;;;;;;5.68;2.00;;;4.60;85.40;;;;;;5047720;28;20320;-65
2024/01/27 01:29:26;;;;;;;3.97;1.80;;;4.50;85.40;;;;;;5045923;28;20041;-64
2024/01/27 01:31:53;;;;;;;3.55;2.05;;;4.50;85.50;;;;;;5047508;28;20082;-64
2024/01/27 01:34:18;;;;;;;3.50;2.10;;;4.50;85.60;;;;;;5046918;28;20029;-64
2024/01/27 01:36:45;;;;;;;4.95;2.58;;;4.40;85.60;;;;;;5042889;28;20550;-64
2024/01/27 01:39:13;;;;;;;6.35;3.17;;;4.40;85.90;;;;;;5049186;28;20552;-64
2024/01/27 01:41:38;;;;;;;5.47;2.20;;;4.30;86.00;;;;;;5042660;28;20086;-64
2024/01/27 01:44:04;;;;;;;2.95;1.98;;;4.30;86.10;;;;;;5044705;28;20041;-64
2024/01/27 01:46:30;;;;;;;3.42;1.92;;;4.20;86.30;;;;;;5043930;28;20033;-63
2024/01/27 01:48:55;;;;;;;4.18;1.48;;;4.10;86.30;;;;;;5044476;28;20405;-64
2024/01/27 01:51:22;;;;;;;2.67;1.83;;;4.10;86.50;;;;;;5044345;28;20409;-64
2024/01/27 01:53:49;;;;;;;3.58;1.67;;;4.00;86.60;;;;;;5045355;28;20032;-64
2024/01/27 01:56:18;;;;;;;5.03;1.80;;;4.00;87.50;;;;;;5044366;28;20030;-64
2024/01/27 01:58:44;;;;;;;4.68;2.03;;;3.90;86.70;;;;;;5044853;28;20161;-64
2024/01/27 02:01:10;;;;;;;3.10;1.85;;;3.90;86.80;;;;;;5045711;28;20045;-64
2024/01/27 02:03:35;;;;;;;5.88;1.90;;;3.90;86.80;;;;;;5044402;28;20037;-64
2024/01/27 02:06:01;;;;;;;5.45;1.92;;;3.90;86.50;;;;;;5042148;28;20056;-64
2024/01/27 02:08:26;;;;;;;4.22;1.67;;;3.90;86.40;;;;;;5047018;28;20389;-65
2024/01/27 02:10:52;;;;;;;2.50;1.70;;;3.90;86.50;;;;;;5044866;28;20032;-64
2024/01/27 02:13:19;;;;;;;3.25;1.98;;;3.90;86.50;;;;;;5043957;28;20033;-64
2024/01/27 02:15:45;;;;;;;5.20;2.17;;;3.90;86.30;;;;;;5045023;28;20033;-64
2024/01/27 02:18:11;;;;;;;4.53;2.30;;;3.90;86.00;;;;;;5040610;28;20034;-64
2024/01/27 02:20:37;;;;;;;3.53;1.70;;;3.90;85.90;;;;;;5044819;28;20561;-64
2024/01/27 02:23:04;;;;;;;4.85;1.88;;;3.80;85.90;;;;;;5045507;28;20029;-65
2024/01/27 02:25:30;;;;;;;2.92;1.63;;;3.80;86.00;;;;;;5043062;28;20408;-65
2024/01/27 02:27:56;;;;;;;4.05;1.73;;;3.80;86.10;;;;;;5047765;28;20506;-64
2024/01/27 02:30:22;;;;;;;2.95;1.70;;;3.80;86.40;;;;;;5047535;28;20075;-64
2024/01/27 02:32:47;;;;;;;4.05;2.22;;;3.70;86.60;;;;;;5044017;28;20029;-64
2024/01/27 02:35:14;;;;;;;2.55;1.80;;;3.70;86.50;;;;;;5040957;28;20175;-64
2024/01/27 02:37:42;;;;;;;4.32;1.80;;;3.70;86.40;;;;;;5039891;28;20037;-64
2024/01/27 02:40:11;;;;;;;2.72;1.90;;;3.70;86.30;;;;;;5041454;28;20532;-64
2024/01/27 02:42:37;;;;;;;2.58;1.83;;;3.80;86.50;;;;;;5043285;28;20037;-64
2024/01/27 02:45:03;;;;;;;4.43;1.98;;;3.80;86.60;;;;;;5043449;28;20044;-64
2024/01/27 02:47:29;;;;;;;5.45;2.60;;;3.70;86.40;;;;;;5046301;28;20029;-64
2024/01/27 02:49:55;;;;;;;6.53;2.72;;;3.70;86.40;;;;;;5041794;28;20032;-64
2024/01/27 02:52:21;;;;;;;4.07;2.42;;;3.80;86.50;;;;;;5041884;28;20029;-64
2024/01/27 02:54:47;;;;;;;7.70;3.28;;;3.80;86.50;;;;;;5047968;28;20454;-64
2024/01/27 02:57:13;;;;;;;5.65;2.90;;;3.70;86.50;;;;;;5047815;28;20026;-64
2024/01/27 02:59:41;;;;;;;5.45;2.90;;;3.70;86.60;;;;;;5052641;28;20033;-63
2024/01/27 03:02:07;;;;;;;5.60;3.30;;;3.70;86.70;;;;;;5045083;28;20049;-64
2024/01/27 03:04:33;;;;;;;5.85;2.85;;;3.70;86.70;;;;;;5046174;28;20046;-64
2024/01/27 03:06:58;;;;;;;5.65;3.17;;;3.60;86.80;;;;;;5046409;28;20051;-63
2024/01/27 03:09:24;;;;;;;4.65;2.70;;;3.70;86.90;;;;;;5042805;28;20036;-64
2024/01/27 03:11:50;;;;;;;6.97;3.10;;;3.60;87.00;;;;;;5049094;28;20068;-64
2024/01/27 03:14:15;;;;;;;7.38;3.10;;;3.60;87.00;;;;;;5049175;28;20501;-64
2024/01/27 03:16:43;;;;;;;5.18;2.78;;;3.60;87.00;;;;;;5051779;28;20131;-64
2024/01/27 03:19:09;;;;;;;5.50;2.55;;;3.60;87.00;;;;;;5046879;28;20029;-63
2024/01/27 03:21:35;;;;;;;4.55;2.70;;;3.60;86.70;;;;;;5046485;28;20068;-64
2024/01/27 03:24:00;;;;;;;5.05;2.92;;;3.60;86.60;;;;;;5045077;28;20514;-64
2024/01/27 03:26:26;;;;;;;4.72;2.90;;;3.60;86.50;;;;;;5048314;28;20044;-64
2024/01/27 03:28:51;;;;;;;7.28;3.15;;;3.60;86.20;;;;;;5049162;28;20049;-63
2024/01/27 03:31:17;;;;;;;6.50;2.78;;;3.50;86.20;;;;;;5050493;28;20032;-64
2024/01/27 03:33:43;;;;;;;5.53;2.92;;;3.60;86.10;;;;;;5049963;28;20275;-64
2024/01/27 03:36:12;;;;;;;3.85;2.75;;;3.50;86.00;;;;;;5043671;28;20074;-64
2024/01/27 03:38:39;;;;;;;7.13;3.10;;;3.50;86.00;;;;;;5045912;28;20128;-64
2024/01/27 03:41:04;;;;;;;5.40;2.60;;;3.50;85.80;;;;;;5045609;28;20044;-64
2024/01/27 03:43:31;;;;;;;5.88;2.47;;;3.50;85.60;;;;;;5049352;28;20033;-64
2024/01/27 03:45:57;;;;;;;4.13;2.30;;;3.40;85.50;;;;;;5045105;28;20037;-64
2024/01/27 03:48:22;;;;;;;4.47;2.30;;;3.40;85.60;;;;;;5049719;28;20036;-64
2024/01/27 03:50:48;;;;;;;4.13;2.13;;;3.40;85.80;;;;;;5045293;28;20033;-64
2024/01/27 03:53:14;;;;;;;5.45;2.90;;;3.40;86.00;;;;;;5043733;28;20036;-64
2024/01/27 03:55:39;;;;;;;4.93;2.25;;;3.30;86.00;;;;;;5049733;28;20033;-64
2024/01/27 03:58:05;;;;;;;3.60;2.15;;;3.40;85.90;;;;;;5045598;28;20037;-64
2024/01/27 04:00:33;;;;;;;7.00;2.20;;;3.30;85.60;;;;;;5047242;28;20056;-64
2024/01/27 04:02:59;;;;;;;5.45;2.25;;;3.30;85.40;;;;;;5045891;28;20025;-64
2024/01/27 04:05:25;;;;;;;3.08;1.80;;;3.20;85.30;;;;;;5047125;28;20044;-64
2024/01/27 04:07:51;;;;;;;5.68;1.63;;;3.20;85.30;;;;;;5048151;28;20383;-63
2024/01/27 04:10:18;;;;;;;2.58;1.42;;;3.10;85.30;;;;;;5043918;28;20433;-63
2024/01/27 04:12:43;;;;;;;4.75;1.27;;;3.10;86.30;;;;;;5053995;28;20041;-63
2024/01/27 04:15:10;;;;;;;3.25;1.45;;;3.00;85.50;;;;;;5046019;28;20029;-63
2024/01/27 04:17:37;;;;;;;2.72;1.30;;;2.90;85.60;;;;;;5044287;28;20094;-63
2024/01/27 04:20:03;;;;;;;3.17;1.45;;;2.90;85.80;;;;;;5045711;28;20057;-63
2024/01/27 04:22:28;;;;;;;4.03;1.30;;;2.90;86.10;;;;;;5046759;28;20497;-63
2024/01/27 04:24:54;;;;;;;5.22;1.48;;;2.80;86.30;;;;;;5048182;28;20063;-63
2024/01/27 04:27:19;;;;;;;2.25;1.40;;;2.80;86.50;;;;;;5045402;28;20512;-63
2024/01/27 04:29:45;;;;;;;1.75;1.25;;;2.70;86.60;;;;;;5045773;28;20025;-63
2024/01/27 04:32:12;;;;;;;3.67;1.42;;;2.70;86.80;;;;;;5045605;28;20514;-63
2024/01/27 04:34:38;;;;;;;2.63;1.50;;;2.70;87.00;;;;;;5044457;28;20033;-63
2024/01/27 04:37:04;;;;;;;4.45;1.67;;;2.70;87.10;;;;;;5049405;28;20382;-63
2024/01/27 04:39:29;;;;;;;2.65;1.45;;;2.70;86.80;;;;;;5051313;28;20025;-63
2024/01/27 04:41:55;;;;;;;4.18;1.35;;;2.80;87.60;;;;;;5047303;28;20468;-63
2024/01/27 04:44:21;;;;;;;4.18;1.45;;;2.70;86.60;;;;;;5045069;28;20041;-63
2024/01/27 04:46:46;;;;;;;4.20;1.60;;;2.70;86.60;;;;;;5048258;28;20052;-63
2024/01/27 04:49:13;;;;;;;2.92;1.45;;;2.60;86.60;;;;;;5045044;28;20057;-63
2024/01/27 04:51:39;;;;;;;4.97;1.85;;;2.60;86.70;;;;;;5048070;28;20056;-62
2024/01/27 04:54:05;;;;;;;2.70;1.77;;;2.70;86.80;;;;;;5044772;28;20029;-63
2024/01/27 04:56:30;;;;;;;4.20;1.90;;;2.70;86.80;;;;;;5048051;28;20527;-63
2024/01/27 04:58:56;;;;;;;6.28;1.83;;;2.70;86.80;;;;;;5046713;28;20032;-64
2024/01/27 05:01:21;;;;;;;2.72;1.65;;;2.70;86.70;;;;;;5048187;28;20029;-64
2024/01/27 05:03:47;;;;;;;3.83;2.13;;;2.70;86.50;;;;;;5047329;28;20060;-63
2024/01/27 05:06:13;;;;;;;2.95;1.95;;;2.70;86.10;;;;;;5044236;28;20447;-64
2024/01/27 05:08:39;;;;;;;7.20;2.28;;;2.70;86.00;;;;;;5045597;28;20120;-64
2024/01/27 05:11:04;;;;;;;2.78;1.90;;;2.60;86.00;;;;;;5045999;28;20321;-63
2024/01/27 05:13:30;;;;;;;7.57;2.05;;;2.60;85.90;;;;;;5045493;28;20103;-63
2024/01/27 05:15:56;;;;;;;5.95;2.55;;;2.50;85.80;;;;;;5045351;28;20120;-63
2024/01/27 05:18:22;;;;;;;3.90;2.35;;;2.50;86.10;;;;;;5043508;28;20493;-64
2024/01/27 05:20:47;;;;;;;4.22;2.40;;;2.40;86.10;;;;;;5046147;28;20091;-64
2024/01/27 05:23:13;;;;;;;3.50;2.20;;;2.40;86.30;;;;;;5045171;28;20029;-63
2024/01/27 05:25:39;;;;;;;4.50;2.30;;;2.40;86.60;;;;;;5036870;28;20500;-63
2024/01/27 05:28:05;;;;;;;4.55;2.65;;;2.30;86.80;;;;;;5043941;28;20311;-63
2024/01/27 05:30:30;;;;;;;3.20;2.38;;;2.40;86.90;;;;;;5042530;28;20051;-64
2024/01/27 05:32:56;;;;;;;7.93;2.70;;;2.40;86.70;;;;;;5041456;28;20491;-63
2024/01/27 05:35:21;;;;;;;5.88;2.33;;;2.40;86.50;;;;;;5044297;28;20697;-63
2024/01/27 05:37:47;;;;;;;3.35;2.58;;;2.30;86.30;;;;;;5041411;28;20045;-63
2024/01/27 05:40:13;;;;;;;5.45;3.00;;;2.30;86.20;;;;;;5043191;28;20038;-63
2024/01/27 05:42:40;;;;;;;7.43;3.33;;;2.30;86.30;;;;;;5036477;28;20406;-63
2024/01/27 05:45:06;;;;;;;5.90;3.13;;;2.30;86.50;;;;;;5041704;28;20043;-64
2024/01/27 05:47:32;;;;;;;8.48;3.80;;;2.20;86.30;;;;;;5050511;28;20050;-63
2024/01/27 05:49:57;;;;;;;7.15;3.45;;;2.20;87.10;;;;;;5044739;28;20399;-63
2024/01/27 05:52:25;;;;;;;3.35;2.60;;;2.20;86.30;;;;;;5048251;28;20060;-63
2024/01/27 05:54:51;;;;;;;3.45;2.25;;;2.10;86.30;;;;;;5044495;28;20037;-62
2024/01/27 05:57:17;;;;;;;7.38;2.22;;;2.10;86.30;;;;;;5045079;28;20251;-63
2024/01/27 05:59:42;;;;;;;5.35;1.70;;;2.00;86.30;;;;;;5046079;28;20025;-63
2024/01/27 06:02:08;;;;;;;4.25;2.00;;;2.00;86.50;;;;;;5040974;28;20078;-61
2024/01/27 06:04:34;;;;;;;6.07;1.90;;;2.00;86.60;;;;;;5047259;28;20086;-63
2024/01/27 06:07:00;;;;;;;5.25;1.70;;;2.00;86.80;;;;;;5045346;28;20047;-63
2024/01/27 06:09:25;;;;;;;5.97;2.30;;;1.90;86.80;;;;;;5044200;28;20040;-63
2024/01/27 06:11:51;;;;;;;4.75;2.35;;;1.90;87.00;;;;;;5045956;28;20037;-63
2024/01/27 06:14:16;;;;;;;5.28;2.50;;;2.00;87.20;;;;;;5043836;28;20083;-62
2024/01/27 06:16:42;;;;;;;4.85;2.08;;;2.00;87.20;;;;;;5045428;28;20037;-63
2024/01/27 06:19:09;;;;;;;3.10;2.05;;;2.00;87.20;;;;;;5044123;28;20045;-63
2024/01/27 06:21:35;;;;;;;6.93;2.90;;;2.00;87.30;;;;;;5044817;28;20029;-63
2024/01/27 06:24:00;;;;;;;7.70;2.90;;;2.00;87.20;;;;;;5043196;28;20037;-62
2024/01/27 06:26:26;;;;;;;5.90;3.80;;;2.00;87.10;;;;;;5045306;28;20484;-62
2024/01/27 06:28:52;;;;;;;9.55;5.03;;;2.00;86.90;;;;;;5046437;28;20094;-62
2024/01/27 06:31:17;;;;;;;16.63;10.85;;;2.00;86.70;;;;;;5044104;28;20033;-63
2024/01/27 06:33:43;;;;;;;9.52;6.25;;;1.90;86.60;;;;;;5046738;28;20082;-63
2024/01/27 06:36:09;;;;;;;8.43;5.50;;;1.90;86.60;;;;;;5044883;28;20030;-63
2024/01/27 06:38:37;;;;;;;5.75;4.70;;;1.90;86.50;;;;;;5048198;28;20017;-63
2024/01/27 06:41:03;;;;;;;6.78;4.30;;;1.90;86.50;;;;;;5044185;28;20068;-63
2024/01/27 06:43:29;;;;;;;5.63;3.90;;;1.90;86.60;;;;;;5046868;28;20075;-62
2024/01/27 06:45:57;;;;;;;7.60;3.90;;;1.90;86.60;;;;;;5042311;28;20535;-63
2024/01/27 06:48:25;;;;;;;7.30;4.18;;;1.80;86.50;;;;;;5035518;28;20061;-63
2024/01/27 06:50:51;;;;;;;8.10;4.70;;;1.80;86.50;;;;;;5041415;28;20545;-63
2024/01/27 06:53:18;;;;;;;6.03;4.22;;;1.70;86.50;;;;;;5042646;28;20041;-63
2024/01/27 06:55:44;;;;;;;9.25;4.15;;;1.70;86.40;;;;;;5046332;28;20033;-62
2024/01/27 06:58:10;;;;;;;9.00;4.57;;;1.70;86.50;;;;;;5040743;28;20030;-63
2024/01/27 07:00:35;;;;;;;8.02;4.93;;;1.70;86.60;;;;;;5044807;28;20111;-63
2024/01/27 07:03:02;;;;;;;14.35;7.30;;;1.60;86.50;;;;;;5043697;28;20024;-62
2024/01/27 07:05:28;;;;;;;14.73;6.53;;;1.60;86.50;;;;;;5042702;28;20576;-62
2024/01/27 07:07:53;;;;;;;11.30;6.22;;;1.60;86.70;;;;;;5049458;28;20111;-63
2024/01/27 07:10:20;;;;;;;9.48;5.93;;;1.60;86.80;;;;;;5042307;28;20567;-63
2024/01/27 07:12:45;;;;;;;8.52;5.07;;;1.50;86.90;;;;;;5046752;28;20061;-63
2024/01/27 07:15:11;;;;;;;7.32;4.75;;;1.50;87.00;;;;;;5040263;28;20030;-63
2024/01/27 07:17:36;;;;;;;9.95;4.22;;;1.50;87.20;;;;;;5042604;28;20641;-64
2024/01/27 07:20:02;;;;;;;7.55;4.18;;;1.40;87.40;;;;;;5047988;28;20033;-62
2024/01/27 07:22:28;;;;;;;9.00;4.00;;;1.40;87.70;;;;;;5026842;28;20029;-62
2024/01/27 07:24:55;;;;;;;7.75;4.05;;;1.40;87.90;;;;;;5036304;28;20558;-64
2024/01/27 07:27:23;;;;;;;7.30;4.72;;;1.40;88.00;;;;;;5040805;28;20036;-63
2024/01/27 07:29:48;;;;;;;8.13;5.22;;;1.40;88.20;;;;;;5038555;28;20036;-63
2024/01/27 07:32:14;;;;;;;9.45;4.65;;;1.40;88.40;;;;;;5035871;28;20416;-63
2024/01/27 07:34:43;;;;;;;11.20;6.10;;;1.40;88.40;;;;;;5035152;28;20065;-63
2024/01/27 07:37:09;;;;;;;12.95;6.45;;;1.50;88.50;;;;;;5042008;28;20041;-63
2024/01/27 07:39:35;;;;;;;16.52;6.50;;;1.50;88.40;;;;;;5040164;28;20079;-62
2024/01/27 07:42:00;;;;;;;10.65;5.93;;;1.50;88.10;;;;;;5035791;28;20041;-63
2024/01/27 07:44:27;;;;;;;9.48;5.57;;;1.50;88.00;;;;;;5045027;28;20048;-62
2024/01/27 07:46:53;;;;;;;9.32;5.13;;;1.50;88.00;;;;;;5047481;28;20055;-63
2024/01/27 07:49:18;;;;;;;9.88;4.93;;;1.50;88.10;;;;;;5041615;28;20520;-63
2024/01/27 07:51:44;;;;;;;9.25;4.75;;;1.50;88.20;;;;;;5039110;28;20049;-63
2024/01/27 07:54:10;;;;;;;8.13;4.07;;;1.50;88.50;;;;;;5047667;28;20029;-63
2024/01/27 07:56:37;;;;;;;6.40;4.55;;;1.50;88.80;;;;;;5037571;28;20047;-63
2024/01/27 07:59:02;;;;;;;7.53;3.92;;;1.50;89.20;;;;;;5044012;28;20037;-62
2024/01/27 08:01:28;;;;;;;7.97;4.35;;;1.50;89.30;;;;;;5039695;28;20416;-62
2024/01/27 08:03:53;;;;;;;9.52;4.13;;;1.60;89.40;;;;;;5045459;28;20221;-61
2024/01/27 08:06:27;;;;;;;10.45;4.30;;;1.60;89.80;;;;;;5041138;28;20043;-61
2024/01/27 08:08:54;;;;;;;8.65;4.55;;;1.60;90.00;;;;;;5043304;28;20476;-62
2024/01/27 08:11:19;;;;;;;10.73;4.45;;;1.70;90.00;;;;;;5042188;28;20196;-62
2024/01/27 08:13:45;;;;;;;5.22;3.83;;;1.70;90.00;;;;;;5040492;28;20128;-62
2024/01/27 08:16:12;;;;;;;6.65;4.03;;;1.80;90.10;;;;;;5044703;28;20440;-62
2024/01/27 08:18:39;;;;;;;6.78;3.75;;;1.80;90.10;;;;;;5044660;28;20037;-62
2024/01/27 08:21:05;;;;;;;8.32;4.05;;;1.90;90.10;;;;;;5037189;28;20040;-62
2024/01/27 08:23:30;;;;;;;13.23;6.38;;;1.90;90.00;;;;;;5047084;28;20516;-62
2024/01/27 08:25:56;;;;;;;12.77;6.20;;;2.00;90.00;;;;;;5037975;28;20352;-63
2024/01/27 08:28:22;;;;;;;12.45;6.65;;;2.10;90.00;;;;;;5043260;28;20467;-63
2024/01/27 08:30:47;;;;;;;20.52;8.70;;;2.10;90.00;;;;;;5039885;28;20037;-64
2024/01/27 08:33:13;;;;;;;13.07;7.78;;;2.20;90.00;;;;;;5044819;28;20037;-63
2024/01/27 08:35:38;;;;;;;10.18;5.60;;;2.30;90.00;;;;;;5045226;28;20041;-62
2024/01/27 08:38:05;;;;;;;12.20;6.30;;;2.30;90.00;;;;;;5038505;28;20025;-62
2024/01/27 08:40:32;;;;;;;10.88;5.30;;;2.40;90.00;;;;;;5043172;28;20452;-62
2024/01/27 08:42:57;;;;;;;11.18;4.78;;;2.40;90.10;;;;;;5036116;28;20102;-63
2024/01/27 08:45:24;;;;;;;7.57;4.07;;;2.50;90.10;;;;;;5040274;28;20273;-62
2024/01/27 08:47:49;;;;;;;8.10;4.03;;;2.50;90.10;;;;;;5040046;28;20033;-62
2024/01/27 08:50:15;;;;;;;7.50;3.90;;;2.60;90.10;;;;;;5041905;28;20036;-62
2024/01/27 08:52:41;;;;;;;7.78;4.50;;;2.70;90.00;;;;;;5033145;28;20568;-63
2024/01/27 08:55:07;;;;;;;11.60;4.68;;;2.70;90.00;;;;;;5041133;28;20484;-62
2024/01/27 08:57:32;;;;;;;8.85;4.55;;;2.80;90.00;;;;;;5042343;28;20033;-62
2024/01/27 08:59:58;;;;;;;6.97;4.55;;;2.80;90.30;;;;;;5038537;28;20026;-62
2024/01/27 09:02:23;;;;;;;9.35;4.85;;;2.90;90.00;;;;;;5038630;28;20097;-63
2024/01/27 09:04:49;;;;;;;7.80;5.15;;;2.90;90.00;;;;;;5041048;28;20045;-62
2024/01/27 09:07:14;;;;;;;9.23;4.70;;;3.00;90.00;;;;;;5045932;28;20119;-60
2024/01/27 09:09:40;;;;;;;11.43;5.43;;;3.00;90.00;;;;;;5044468;28;20049;-62
2024/01/27 09:12:06;;;;;;;7.13;4.68;;;3.00;90.00;;;;;;5043114;28;20576;-62
2024/01/27 09:14:33;;;;;;;7.50;4.70;;;3.10;89.90;;;;;;5035732;28;20036;-62
2024/01/27 09:17:00;;;;;;;9.50;4.85;;;3.10;90.00;;;;;;5041223;28;20527;-62
2024/01/27 09:19:25;;;;;;;8.10;4.80;;;3.20;90.00;;;;;;5039754;28;20056;-62
2024/01/27 09:21:51;;;;;;;10.73;5.47;;;3.20;90.00;;;;;;5042441;28;20594;-63
2024/01/27 09:24:16;;;;;;;11.32;5.05;;;3.30;90.00;;;;;;5038643;28;20511;-62
2024/01/27 09:26:42;;;;;;;9.15;4.82;;;3.30;90.00;;;;;;5045715;28;20412;-63
2024/01/27 09:29:09;;;;;;;13.15;5.68;;;3.40;90.10;;;;;;5042253;28;20098;-63
2024/01/27 09:31:34;;;;;;;7.43;4.57;;;3.50;90.10;;;;;;5041183;28;20156;-62
2024/01/27 09:34:01;;;;;;;10.93;4.78;;;3.60;90.10;;;;;;5040239;28;20064;-63
2024/01/27 09:36:26;;;;;;;8.38;5.13;;;3.60;90.00;;;;;;5041849;28;20071;-63
2024/01/27 09:38:52;;;;;;;9.85;4.97;;;3.70;90.10;;;;;;5043446;28;20057;-63
2024/01/27 09:41:18;;;;;;;8.23;4.45;;;3.70;90.10;;;;;;5044888;28;20094;-63
2024/01/27 09:43:45;;;;;;;8.27;4.72;;;3.80;90.10;;;;;;5036848;28;20029;-63
2024/01/27 09:46:15;;;;;;;7.05;4.70;;;3.80;90.10;;;;;;5042156;28;20424;-63
2024/01/27 09:48:40;;;;;;;7.97;4.75;;;3.90;90.10;;;;;;5040347;28;20053;-63
2024/01/27 09:51:08;;;;;;;7.93;4.88;;;4.00;90.10;;;;;;5034879;28;20037;-64
2024/01/27 09:53:34;;;;;;;9.60;5.38;;;4.00;90.00;;;;;;5042032;28;20029;-63
2024/01/27 09:56:01;;;;;;;11.18;5.90;;;4.10;90.00;;;;;;5038803;28;20036;-63
2024/01/27 09:58:29;;;;;;;12.85;5.55;;;4.20;90.00;;;;;;5037316;28;20044;-62
2024/01/27 10:00:59;;;;;;;10.40;5.57;;;4.30;90.00;;;;;;5039622;28;20569;-63
2024/01/27 10:03:26;;;;;;;8.93;5.00;;;4.40;90.00;;;;;;5040396;28;20140;-63
2024/01/27 10:05:53;;;;;;;8.63;5.18;;;4.40;90.00;;;;;;5040128;28;20040;-62
2024/01/27 10:08:23;;;;;;;10.70;4.97;;;4.50;90.00;;;;;;5049546;28;20386;-63
2024/01/27 10:10:58;;;;;;;12.20;4.43;;;4.60;90.00;;;;;;5047132;28;20036;-63
2024/01/27 10:13:27;;;;;;;6.75;4.35;;;4.70;89.80;;;;;;5044945;28;20052;-63
2024/01/27 10:16:09;;;;;;;11.32;4.57;;;4.80;89.60;;;;;;5046001;28;20110;-63
2024/01/27 10:18:35;;;;;;;7.30;4.57;;;4.80;89.10;;;;;;5046538;28;20033;-63
2024/01/27 10:21:23;;;;;;;11.88;4.80;;;4.90;88.90;;;;;;5045028;28;20476;-63
2024/01/27 10:23:48;;;;;;;10.20;4.63;;;4.90;88.50;;;;;;5041474;28;20436;-63
2024/01/27 10:26:14;;;;;;;9.75;5.07;;;5.00;88.50;;;;;;5042600;28;20037;-63
2024/01/27 10:28:42;;;;;;;11.10;4.65;;;5.10;88.40;;;;;;5043998;28;20044;-63
2024/01/27 10:31:09;;;;;;;9.60;4.38;;;5.10;88.40;;;;;;5047551;28;20036;-62
2024/01/27 10:33:34;;;;;;;11.35;4.68;;;5.20;88.40;;;;;;5040127;28;20033;-61
2024/01/27 10:36:00;;;;;;;8.35;4.22;;;5.20;88.40;;;;;;5043830;28;20052;-63
2024/01/27 10:38:37;;;;;;;8.57;3.92;;;5.30;88.50;;;;;;5043356;28;20043;-63
2024/01/27 10:41:07;;;;;;;8.20;4.78;;;5.40;88.10;;;;;;5042362;28;20049;-63
2024/01/27 10:43:35;;;;;;;6.93;4.60;;;5.50;88.10;;;;;;5047698;28;20414;-64
2024/01/27 10:46:04;;;;;;;12.95;4.60;;;5.50;88.00;;;;;;5039720;28;20052;-63
2024/01/27 10:48:30;;;;;;;12.00;4.55;;;5.60;88.70;;;;;;5042801;28;20408;-63
2024/01/27 10:50:58;;;;;;;10.88;4.68;;;5.70;87.90;;;;;;5042643;28;20044;-63
2024/01/27 10:53:24;;;;;;;9.32;4.78;;;5.80;87.90;;;;;;5039254;28;20037;-64
2024/01/27 10:55:55;;;;;;;8.20;4.53;;;5.80;88.60;;;;;;5036867;28;20409;-64
2024/01/27 10:58:23;;;;;;;6.80;4.07;;;5.90;87.30;;;;;;5043474;28;20060;-61
2024/01/27 11:00:50;;;;;;;8.55;4.22;;;6.00;87.30;;;;;;5046988;28;20049;-63
2024/01/27 11:03:18;;;;;;;9.75;4.30;;;6.10;87.10;;;;;;5037639;28;20064;-63
2024/01/27 11:05:46;;;;;;;10.98;4.32;;;6.10;86.50;;;;;;5042498;28;20084;-63
2024/01/27 11:08:13;;;;;;;6.55;3.70;;;6.20;86.30;;;;;;5044013;28;20080;-63
2024/01/27 11:10:40;;;;;;;4.38;3.40;;;6.20;86.40;;;;;;5044331;28;20037;-63
2024/01/27 11:13:08;;;;;;;6.82;3.92;;;6.30;87.00;;;;;;5044513;28;20490;-63
2024/01/27 11:15:33;;;;;;;10.60;4.40;;;6.30;86.60;;;;;;5041280;28;20033;-63
2024/01/27 11:18:00;;;;;;;7.45;4.07;;;6.40;86.50;;;;;;5036245;28;20554;-63
2024/01/27 11:20:26;;;;;;;7.85;4.20;;;6.40;86.00;;;;;;5038906;28;20200;-63
2024/01/27 11:22:52;;;;;;;11.57;5.35;;;6.50;86.10;;;;;;5042763;28;20086;-64
2024/01/27 11:25:19;;;;;;;9.38;4.78;;;6.50;85.60;;;;;;5046684;28;20373;-64
2024/01/27 11:27:46;;;;;;;9.77;4.90;;;6.50;85.80;;;;;;5048916;28;20032;-64
2024/01/27 11:30:35;;;;;;;8.52;4.15;;;6.50;85.90;;;;;;5042443;28;20031;-64
2024/01/27 11:33:02;;;;;;;10.27;5.45;;;6.60;85.60;;;;;;5036902;28;20481;-63
2024/01/27 11:35:27;;;;;;;10.27;5.18;;;6.60;86.00;;;;;;5044650;28;20029;-64
2024/01/27 11:37:54;;;;;;;11.30;4.53;;;6.70;86.00;;;;;;5046000;28;20039;-65
2024/01/27 11:40:20;;;;;;;8.45;3.75;;;6.70;85.80;;;;;;5038579;28;20037;-64
2024/01/27 11:42:59;;;;;;;7.28;3.80;;;6.80;85.50;;;;;;5042407;28;20040;-64
2024/01/27 11:45:24;;;;;;;7.55;3.97;;;6.80;84.70;;;;;;5042992;28;20033;-65
2024/01/27 11:47:50;;;;;;;7.80;4.00;;;6.80;85.30;;;;;;5046763;28;20148;-64
2024/01/27 11:50:20;;;;;;;7.13;2.78;;;6.90;85.50;;;;;;5048235;28;20516;-64
2024/01/27 11:52:46;;;;;;;7.75;3.13;;;6.90;85.20;;;;;;5047540;28;20471;-64
2024/01/27 11:55:12;;;;;;;7.63;3.28;;;7.00;85.20;;;;;;5041747;28;20031;-64
2024/01/27 11:57:37;;;;;;;8.35;3.90;;;7.10;84.90;;;;;;5040637;28;20477;-64
2024/01/27 12:00:04;;;;;;;8.23;6.07;;;7.10;84.60;;;;;;5044885;28;20052;-65
2024/01/27 12:02:30;;;;;;;10.32;7.43;;;7.20;84.60;;;;;;5037355;28;20115;-64
2024/01/27 12:04:55;;;;;;;15.80;10.68;;;7.20;84.20;;;;;;5043932;28;20566;-65
2024/01/27 12:07:22;;;;;;;13.88;9.48;;;7.30;83.70;;;;;;5042301;28;20045;-65
2024/01/27 12:09:51;;;;;;;12.80;6.43;;;7.30;83.40;;;;;;5044742;28;20052;-65
2024/01/27 12:12:16;;;;;;;9.50;6.22;;;7.40;83.30;;;;;;5046666;28;20041;-64
2024/01/27 12:14:46;;;;;;;12.38;5.20;;;7.50;83.30;;;;;;5043830;28;20286;-65
2024/01/27 12:17:12;;;;;;;9.82;4.65;;;7.50;83.10;;;;;;5042804;28;20026;-64
2024/01/27 12:19:38;;;;;;;7.78;4.85;;;7.50;83.40;;;;;;5043504;28;20041;-65
2024/01/27 12:22:05;;;;;;;6.75;4.15;;;7.60;83.60;;;;;;5046179;28;20138;-65
2024/01/27 12:24:32;;;;;;;9.73;4.47;;;7.70;83.40;;;;;;5043021;28;20121;-65
2024/01/27 12:26:59;;;;;;;6.45;3.63;;;7.70;83.10;;;;;;5043042;28;20052;-65
2024/01/27 12:29:24;;;;;;;6.95;3.97;;;7.80;82.90;;;;;;5042103;28;20075;-65
2024/01/27 12:31:50;;;;;;;6.63;3.42;;;7.80;82.60;;;;;;5038034;28;20037;-64
2024/01/27 12:34:17;;;;;;;8.13;3.53;;;7.90;82.20;;;;;;5044359;28;20476;-65
2024/01/27 12:36:43;;;;;;;7.88;3.30;;;7.90;81.90;;;;;;5044538;28;20040;-65
2024/01/27 12:39:09;;;;;;;5.45;2.80;;;8.00;81.50;;;;;;5040916;28;20053;-65
2024/01/27 12:41:35;;;;;;;6.05;3.35;;;8.00;81.10;;;;;;5046458;28;20282;-64
2024/01/27 12:44:02;;;;;;;5.70;3.30;;;8.00;80.60;;;;;;5049477;28;20428;-65
2024/01/27 12:46:31;;;;;;;7.22;3.65;;;8.10;80.60;;;;;;5049442;28;20037;-64
2024/01/27 12:48:57;;;;;;;8.23;3.53;;;8.10;80.20;;;;;;5042067;28;20037;-65
2024/01/27 12:51:22;;;;;;;4.75;2.90;;;8.10;79.80;;;;;;5044639;28;20421;-64